createdAt,value
2019-05-28T00:01:12.256Z,15.21
2019-05-28T00:03:42.125Z,15.18
2019-05-28T00:06:11.907Z,15.19
2019-05-28T00:08:41.796Z,15.17
2019-05-28T00:11:11.767Z,15.15
2019-05-28T00:13:41.595Z,15.10
2019-05-28T00:16:11.369Z,15.10
2019-05-28T00:18:41.324Z,15.14
2019-05-28T00:21:11.115Z,15.13
2019-05-28T00:23:41.101Z,15.15
2019-05-28T00:26:11.009Z,15.18
2019-05-28T00:28:40.804Z,15.19
2019-05-28T00:31:10.795Z,15.16
2019-05-28T00:33:40.720Z,15.18
2019-05-28T00:36:10.603Z,15.19
2019-05-28T00:38:40.901Z,15.21
2019-05-28T00:41:10.875Z,15.26
2019-05-28T00:43:40.730Z,15.24
2019-05-28T00:46:11.219Z,15.25
2019-05-28T00:48:41.105Z,15.23
2019-05-28T00:51:11.106Z,15.23
2019-05-28T00:53:41.015Z,15.21
2019-05-28T00:56:11.480Z,15.17
2019-05-28T00:58:41.527Z,15.16
2019-05-28T01:01:11.411Z,15.18
2019-05-28T01:03:42.255Z,15.16
2019-05-28T01:06:12.257Z,15.16
2019-05-28T01:08:42.304Z,15.14
2019-05-28T01:11:12.321Z,15.13
2019-05-28T01:13:42.495Z,15.14
2019-05-28T01:16:12.319Z,15.10
2019-05-28T01:18:42.281Z,15.08
2019-05-28T01:21:12.291Z,15.02
2019-05-28T01:23:42.263Z,14.99
2019-05-28T01:26:12.118Z,14.97
2019-05-28T01:28:41.998Z,14.98
2019-05-28T01:31:11.787Z,15.01
2019-05-28T01:33:42.145Z,14.99
2019-05-28T01:36:11.969Z,15.03
2019-05-28T01:38:42.126Z,15.05
2019-05-28T01:41:12.146Z,15.05
2019-05-28T01:43:41.997Z,15.06
2019-05-28T01:46:11.789Z,15.04
2019-05-28T01:48:41.784Z,15.04
2019-05-28T01:51:11.670Z,15.02
2019-05-28T01:53:41.821Z,15.01
2019-05-28T01:56:11.735Z,14.99
2019-05-28T01:58:42.087Z,14.87
2019-05-28T02:01:13.316Z,14.99
2019-05-28T02:03:43.440Z,14.98
2019-05-28T02:06:13.232Z,14.97
2019-05-28T02:08:43.351Z,14.94
2019-05-28T02:11:13.241Z,14.94
2019-05-28T02:13:43.066Z,14.94
2019-05-28T02:16:12.904Z,14.92
2019-05-28T02:18:43.000Z,14.91
2019-05-28T02:21:12.935Z,14.90
2019-05-28T02:23:42.716Z,14.92
2019-05-28T02:26:12.668Z,14.93
2019-05-28T02:28:42.596Z,14.94
2019-05-28T02:31:26.874Z,14.99
2019-05-28T02:33:44.499Z,15.00
2019-05-28T02:36:14.428Z,14.94
2019-05-28T02:38:44.383Z,14.91
2019-05-28T02:41:14.382Z,14.92
2019-05-28T02:43:44.541Z,14.87
2019-05-28T02:46:14.951Z,14.88
2019-05-28T02:48:44.782Z,14.87
2019-05-28T02:51:16.340Z,14.83
2019-05-28T02:53:46.688Z,14.77
2019-05-28T02:56:18.842Z,14.67
2019-05-28T02:58:50.435Z,14.60
2019-05-28T03:01:21.968Z,14.57
2019-05-28T03:03:55.348Z,14.54
2019-05-28T03:06:25.810Z,14.45
2019-05-28T03:08:57.100Z,14.43
2019-05-28T03:11:27.172Z,14.41
2019-05-28T03:13:57.096Z,14.35
2019-05-28T03:16:29.754Z,14.26
2019-05-28T03:19:00.833Z,14.23
2019-05-28T03:21:32.682Z,14.21
2019-05-28T03:24:04.521Z,14.18
2019-05-28T03:26:34.732Z,14.14
2019-05-28T03:29:04.976Z,14.07
2019-05-28T03:31:35.325Z,14.07
2019-05-28T03:34:05.686Z,14.01
2019-05-28T03:36:37.326Z,13.84
2019-05-28T03:39:08.388Z,13.70
2019-05-28T03:41:38.285Z,13.65
2019-05-28T03:44:08.234Z,13.65
2019-05-28T03:46:38.068Z,13.57
2019-05-28T03:49:07.855Z,13.49
2019-05-28T03:51:37.775Z,13.49
2019-05-28T03:54:08.294Z,13.53
2019-05-28T03:56:38.208Z,13.54
2019-05-28T03:59:08.491Z,13.53
2019-05-28T04:01:39.011Z,13.55
2019-05-28T04:04:09.094Z,13.47
2019-05-28T04:06:38.987Z,13.49
2019-05-28T04:09:09.501Z,13.47
2019-05-28T04:11:44.657Z,13.48
2019-05-28T04:14:11.300Z,13.55
2019-05-28T04:16:41.477Z,13.49
2019-05-28T04:19:11.648Z,13.51
2019-05-28T04:21:41.410Z,13.37
2019-05-28T04:24:12.333Z,13.26
2019-05-28T04:26:42.486Z,13.31
2019-05-28T04:29:12.315Z,13.31
2019-05-28T04:31:43.742Z,13.25
2019-05-28T04:34:13.642Z,13.28
2019-05-28T04:36:43.806Z,13.27
2019-05-28T04:39:13.603Z,13.26
2019-05-28T04:41:43.499Z,13.30
2019-05-28T04:44:13.674Z,13.33
2019-05-28T04:46:43.558Z,13.42
2019-05-28T04:49:13.898Z,13.34
2019-05-28T04:51:43.755Z,13.37
2019-05-28T04:54:13.627Z,13.41
2019-05-28T04:56:43.534Z,13.32
2019-05-28T04:59:13.639Z,13.38
2019-05-28T05:01:44.036Z,13.49
2019-05-28T05:04:14.361Z,13.84
2019-05-28T05:06:44.117Z,14.77
2019-05-28T05:09:14.132Z,15.82
2019-05-28T05:11:44.039Z,16.37
2019-05-28T05:14:13.913Z,16.22
2019-05-28T05:16:44.297Z,16.12
2019-05-28T05:19:14.797Z,16.20
2019-05-28T05:21:45.841Z,16.30
2019-05-28T05:24:15.752Z,16.25
2019-05-28T05:26:46.135Z,16.14
2019-05-28T05:29:16.207Z,16.17
2019-05-28T05:31:46.129Z,16.43
2019-05-28T05:34:16.317Z,16.87
2019-05-28T05:36:46.270Z,17.21
2019-05-28T05:39:16.122Z,17.19
2019-05-28T05:41:46.190Z,17.10
2019-05-28T05:44:16.254Z,17.41
2019-05-28T05:46:46.083Z,17.67
2019-05-28T05:49:16.475Z,17.60
2019-05-28T05:51:46.582Z,17.92
2019-05-28T05:54:16.441Z,18.19
2019-05-28T05:56:46.517Z,18.07
2019-05-28T05:59:16.416Z,17.60
2019-05-28T06:01:46.444Z,17.32
2019-05-28T06:04:16.505Z,16.97
2019-05-28T06:06:46.408Z,16.74
2019-05-28T06:09:16.296Z,16.36
2019-05-28T06:11:46.376Z,16.00
2019-05-28T06:14:16.203Z,15.75
2019-05-28T06:16:46.241Z,15.72
2019-05-28T06:19:16.877Z,15.72
2019-05-28T06:21:46.847Z,15.60
2019-05-28T06:24:16.867Z,15.44
2019-05-28T06:26:46.688Z,15.54
2019-05-28T06:29:16.830Z,15.62
2019-05-28T06:31:46.655Z,15.46
2019-05-28T06:34:16.417Z,15.45
2019-05-28T06:36:46.563Z,15.38
2019-05-28T06:39:16.555Z,15.45
2019-05-28T06:41:46.588Z,15.58
2019-05-28T06:44:16.689Z,15.77
2019-05-28T06:46:46.895Z,15.89
2019-05-28T06:49:18.254Z,16.04
2019-05-28T06:51:48.368Z,16.05
2019-05-28T06:54:18.219Z,16.03
2019-05-28T06:56:48.013Z,15.77
2019-05-28T06:59:18.126Z,15.83
2019-05-28T07:01:49.402Z,16.07
2019-05-28T07:04:32.281Z,16.09
2019-05-28T07:06:51.184Z,15.87
2019-05-28T07:09:21.363Z,15.87
2019-05-28T07:11:51.114Z,16.01
2019-05-28T07:14:20.924Z,16.14
2019-05-28T07:16:53.546Z,16.33
2019-05-28T07:19:24.988Z,16.21
2019-05-28T07:21:54.117Z,16.36
2019-05-28T07:24:24.270Z,16.52
2019-05-28T07:26:54.192Z,16.51
2019-05-28T07:29:23.993Z,16.59
2019-05-28T07:31:54.403Z,16.49
2019-05-28T07:34:30.721Z,16.50
2019-05-28T07:36:56.083Z,16.53
2019-05-28T07:39:25.923Z,16.69
2019-05-28T07:41:55.785Z,16.72
2019-05-28T07:44:25.658Z,16.70
2019-05-28T07:46:55.658Z,16.72
2019-05-28T07:49:25.529Z,16.85
2019-05-28T07:51:55.942Z,16.86
2019-05-28T07:54:25.970Z,16.95
2019-05-28T07:56:56.187Z,17.08
2019-05-28T07:59:26.188Z,17.37
2019-05-28T08:01:55.913Z,17.40
2019-05-28T08:04:26.094Z,17.57
2019-05-28T08:06:56.267Z,17.81
2019-05-28T08:09:26.184Z,17.91
2019-05-28T08:11:56.055Z,18.05
2019-05-28T08:14:26.426Z,18.01
2019-05-28T08:16:56.449Z,17.66
2019-05-28T08:19:26.478Z,17.52
2019-05-28T08:21:57.398Z,17.59
2019-05-28T08:24:27.391Z,17.67
2019-05-28T08:26:57.210Z,17.55
2019-05-28T08:29:27.121Z,17.75
2019-05-28T08:31:58.279Z,17.64
2019-05-28T08:34:28.219Z,17.94
2019-05-28T08:37:05.841Z,18.31
2019-05-28T08:39:33.400Z,18.25
2019-05-28T08:42:01.371Z,18.10
2019-05-28T08:44:32.560Z,18.16
2019-05-28T08:47:02.537Z,18.15
2019-05-28T08:49:33.063Z,18.20
2019-05-28T08:52:02.999Z,18.21
2019-05-28T08:54:33.152Z,18.27
2019-05-28T08:57:03.406Z,18.52
2019-05-28T08:59:33.304Z,18.62
2019-05-28T09:02:03.199Z,18.73
2019-05-28T09:04:32.959Z,18.75
2019-05-28T09:07:02.912Z,18.53
2019-05-28T09:09:32.699Z,18.76
2019-05-28T09:12:02.948Z,18.88
2019-05-28T09:14:54.311Z,18.81
2019-05-28T09:17:05.082Z,18.91
2019-05-28T09:19:36.728Z,18.78
2019-05-28T09:22:06.625Z,18.86
2019-05-28T09:24:36.711Z,18.73
2019-05-28T09:27:06.669Z,18.67
2019-05-28T09:29:36.816Z,18.69
2019-05-28T09:32:06.811Z,18.70
2019-05-28T09:34:36.705Z,18.75
2019-05-28T09:37:06.540Z,18.83
2019-05-28T09:39:36.405Z,18.99
2019-05-28T09:42:06.709Z,19.04
2019-05-28T09:44:36.714Z,19.18
2019-05-28T09:47:07.181Z,19.13
2019-05-28T09:49:37.468Z,19.05
2019-05-28T09:52:08.119Z,18.82
2019-05-28T09:54:38.394Z,18.68
2019-05-28T09:57:08.262Z,18.50
2019-05-28T09:59:41.732Z,18.66
2019-05-28T10:02:10.438Z,18.80
2019-05-28T10:04:49.134Z,18.84
2019-05-28T10:07:12.426Z,18.89
2019-05-28T10:09:42.333Z,18.97
2019-05-28T10:12:12.124Z,19.06
2019-05-28T10:14:44.298Z,19.09
2019-05-28T10:17:13.754Z,19.17
2019-05-28T10:19:43.925Z,19.05
2019-05-28T10:22:13.762Z,18.92
2019-05-28T10:24:43.585Z,19.21
2019-05-28T10:27:13.614Z,19.21
2019-05-28T10:29:43.478Z,19.24
2019-05-28T10:32:13.344Z,18.99
2019-05-28T10:35:00.015Z,18.83
2019-05-28T10:37:14.685Z,18.68
2019-05-28T10:39:44.569Z,18.72
2019-05-28T10:42:14.456Z,18.35
2019-05-28T10:44:45.284Z,18.27
2019-05-28T10:47:15.269Z,18.12
2019-05-28T10:49:45.111Z,18.19
2019-05-28T10:52:15.103Z,18.28
2019-05-28T10:54:45.196Z,18.49
2019-05-28T10:57:15.016Z,18.42
2019-05-28T10:59:46.321Z,18.07
2019-05-28T11:02:16.104Z,17.93
2019-05-28T11:04:46.374Z,18.26
2019-05-28T11:07:17.622Z,18.47
2019-05-28T11:09:47.470Z,18.63
2019-05-28T11:12:17.398Z,18.48
2019-05-28T11:14:47.547Z,18.38
2019-05-28T11:17:18.681Z,18.44
2019-05-28T11:19:49.042Z,18.30
2019-05-28T11:22:18.947Z,18.21
2019-05-28T11:24:48.799Z,18.45
2019-05-28T11:27:19.270Z,18.69
2019-05-28T11:29:49.663Z,19.03
2019-05-28T11:32:19.606Z,18.76
2019-05-28T11:34:49.636Z,19.03
2019-05-28T11:37:19.524Z,19.32
2019-05-28T11:39:49.362Z,19.55
2019-05-28T11:42:19.298Z,19.44
2019-05-28T11:44:49.769Z,19.56
2019-05-28T11:47:19.956Z,19.76
2019-05-28T11:49:49.814Z,20.03
2019-05-28T11:52:19.734Z,20.40
2019-05-28T11:54:49.475Z,20.43
2019-05-28T11:57:19.603Z,20.61
2019-05-28T11:59:49.490Z,20.42
2019-05-28T12:02:19.657Z,20.46
2019-05-28T12:04:49.542Z,20.38
2019-05-28T12:07:26.024Z,20.07
2019-05-28T12:09:51.052Z,19.82
2019-05-28T12:12:20.914Z,19.55
2019-05-28T12:14:50.897Z,19.19
2019-05-28T12:17:37.951Z,18.90
2019-05-28T12:19:52.507Z,18.61
2019-05-28T12:22:22.437Z,18.34
2019-05-28T12:24:52.227Z,18.06
2019-05-28T12:27:22.317Z,18.20
2019-05-28T12:29:52.920Z,18.25
2019-05-28T12:32:22.777Z,18.30
2019-05-28T12:34:52.712Z,18.56
2019-05-28T12:37:22.421Z,18.68
2019-05-28T12:39:52.312Z,18.62
2019-05-28T12:42:22.104Z,18.33
2019-05-28T12:45:08.461Z,18.36
2019-05-28T12:47:23.769Z,18.46
2019-05-28T12:49:53.591Z,18.54
2019-05-28T12:52:24.352Z,18.41
2019-05-28T12:54:54.327Z,18.39
2019-05-28T12:57:24.172Z,18.34
2019-05-28T12:59:54.007Z,18.34
2019-05-28T13:02:23.867Z,18.57
2019-05-28T13:04:53.916Z,18.57
2019-05-28T13:07:23.818Z,18.63
2019-05-28T13:09:54.383Z,18.73
2019-05-28T13:12:25.025Z,18.83
2019-05-28T13:14:55.435Z,18.78
2019-05-28T13:17:25.315Z,18.91
2019-05-28T13:19:55.361Z,18.98
2019-05-28T13:22:25.676Z,18.87
2019-05-28T13:24:55.633Z,18.84
2019-05-28T13:27:25.710Z,18.99
2019-05-28T13:29:55.450Z,18.99
2019-05-28T13:32:25.336Z,19.06
2019-05-28T13:34:55.247Z,19.12
2019-05-28T13:37:25.357Z,19.04
2019-05-28T13:39:55.156Z,19.17
2019-05-28T13:42:25.008Z,19.17
2019-05-28T13:44:54.796Z,19.16
2019-05-28T13:47:33.430Z,19.22
2019-05-28T13:49:56.355Z,19.05
2019-05-28T13:52:26.529Z,19.12
2019-05-28T13:54:58.116Z,19.20
2019-05-28T13:57:28.238Z,19.23
2019-05-28T13:59:59.217Z,19.31
2019-05-28T14:02:29.435Z,19.27
2019-05-28T14:05:00.994Z,19.20
2019-05-28T14:07:30.919Z,19.07
2019-05-28T14:10:00.863Z,19.33
2019-05-28T14:12:31.818Z,19.45
2019-05-28T14:15:02.048Z,19.60
2019-05-28T14:17:33.056Z,19.85
2019-05-28T14:20:03.112Z,20.06
2019-05-28T14:22:34.633Z,20.07
2019-05-28T14:25:05.386Z,19.91
2019-05-28T14:27:36.506Z,19.71
2019-05-28T14:30:07.849Z,19.47
2019-05-28T14:32:37.851Z,19.30
2019-05-28T14:35:08.130Z,19.22
2019-05-28T14:37:39.392Z,19.22
2019-05-28T14:40:10.598Z,19.14
2019-05-28T14:42:41.798Z,19.15
2019-05-28T14:45:12.551Z,19.07
2019-05-28T14:47:42.867Z,19.18
2019-05-28T14:50:13.374Z,19.28
2019-05-28T14:52:43.627Z,19.25
2019-05-28T14:55:17.384Z,19.11
2019-05-28T14:57:47.318Z,19.22
2019-05-28T15:00:17.925Z,18.95
2019-05-28T15:02:48.311Z,18.82
2019-05-28T15:05:18.402Z,18.71
2019-05-28T15:07:48.438Z,18.75
2019-05-28T15:10:18.819Z,18.86
2019-05-28T15:12:48.878Z,18.90
2019-05-28T15:15:34.554Z,18.71
2019-05-28T15:17:51.125Z,18.66
2019-05-28T15:20:21.127Z,18.71
2019-05-28T15:22:51.142Z,18.52
2019-05-28T15:25:21.612Z,18.53
2019-05-28T15:27:51.615Z,18.66
2019-05-28T15:30:22.420Z,18.53
2019-05-28T15:32:52.467Z,18.49
2019-05-28T15:35:22.742Z,18.47
2019-05-28T15:37:52.783Z,18.55
2019-05-28T15:40:22.885Z,18.63
2019-05-28T15:43:05.469Z,18.61
2019-05-28T15:45:24.597Z,18.71
2019-05-28T15:47:55.218Z,18.79
2019-05-28T15:50:25.255Z,18.87
2019-05-28T15:52:58.751Z,18.93
2019-05-28T15:55:27.329Z,19.04
2019-05-28T15:57:57.698Z,19.07
2019-05-28T16:00:27.884Z,18.78
2019-05-28T16:02:57.745Z,18.44
2019-05-28T16:05:27.787Z,18.31
2019-05-28T16:07:57.865Z,18.23
2019-05-28T16:10:28.085Z,18.27
2019-05-28T16:12:58.136Z,18.14
2019-05-28T16:15:28.553Z,18.04
2019-05-28T16:17:58.589Z,18.06
2019-05-28T16:20:28.549Z,17.94
2019-05-28T16:22:58.404Z,18.09
2019-05-28T16:25:28.371Z,18.18
2019-05-28T16:27:58.315Z,18.07
2019-05-28T16:30:28.747Z,18.01
2019-05-28T16:32:58.936Z,17.83
2019-05-28T16:35:30.148Z,17.69
2019-05-28T16:38:00.470Z,17.46
2019-05-28T16:40:30.479Z,17.47
2019-05-28T16:43:00.389Z,17.37
2019-05-28T16:45:30.470Z,17.38
2019-05-28T16:48:00.461Z,17.40
2019-05-28T16:50:30.663Z,17.35
2019-05-28T16:53:00.638Z,17.29
2019-05-28T16:55:30.740Z,17.20
2019-05-28T16:58:00.829Z,17.27
2019-05-28T17:00:31.781Z,17.27
2019-05-28T17:03:03.969Z,17.18
2019-05-28T17:05:34.088Z,17.17
2019-05-28T17:08:05.542Z,17.12
2019-05-28T17:10:35.478Z,17.04
2019-05-28T17:13:05.750Z,16.95
2019-05-28T17:15:35.991Z,16.88
2019-05-28T17:18:07.525Z,16.80
2019-05-28T17:20:37.443Z,16.81
2019-05-28T17:23:08.100Z,16.80
2019-05-28T17:25:38.207Z,16.78
2019-05-28T17:28:08.936Z,16.78
2019-05-28T17:30:38.855Z,16.80
2019-05-28T17:33:10.457Z,16.72
2019-05-28T17:35:40.607Z,16.68
2019-05-28T17:38:10.887Z,16.64
2019-05-28T17:40:52.949Z,16.54
2019-05-28T17:43:24.043Z,16.60
2019-05-28T17:45:54.369Z,16.59
2019-05-28T17:48:24.948Z,16.56
2019-05-28T17:50:55.058Z,16.54
2019-05-28T17:53:25.072Z,16.47
2019-05-28T17:55:58.769Z,16.41
2019-05-28T17:58:30.988Z,16.40
2019-05-28T18:01:00.764Z,16.42
2019-05-28T18:03:31.006Z,16.46
2019-05-28T18:06:04.175Z,16.40
2019-05-28T18:08:34.479Z,16.32
2019-05-28T18:11:05.063Z,16.27
2019-05-28T18:13:35.240Z,16.17
2019-05-28T18:16:05.250Z,16.15
2019-05-28T18:18:35.077Z,16.17
2019-05-28T18:21:05.205Z,16.10
2019-05-28T18:23:41.818Z,16.10
2019-05-28T18:26:12.203Z,16.13
2019-05-28T18:28:42.321Z,16.08
2019-05-28T18:31:12.535Z,16.10
2019-05-28T18:33:43.370Z,16.08
2019-05-28T18:36:13.912Z,16.03
2019-05-28T18:38:44.229Z,15.96
2019-05-28T18:41:21.414Z,15.94
2019-05-28T18:43:45.853Z,15.52
2019-05-28T18:46:15.780Z,15.84
2019-05-28T18:48:46.444Z,15.81
2019-05-28T18:51:16.841Z,15.80
2019-05-28T18:53:46.662Z,15.76
2019-05-28T18:56:18.025Z,15.74
2019-05-28T18:58:48.361Z,15.65
2019-05-28T19:01:18.230Z,15.59
2019-05-28T19:03:48.505Z,15.54
2019-05-28T19:06:18.419Z,15.45
2019-05-28T19:08:48.272Z,15.38
2019-05-28T19:11:18.179Z,15.35
2019-05-28T19:13:48.049Z,15.31
2019-05-28T19:16:18.223Z,15.23
2019-05-28T19:18:48.250Z,15.18
2019-05-28T19:21:18.141Z,15.09
2019-05-28T19:23:47.976Z,15.01
2019-05-28T19:26:17.939Z,14.96
2019-05-28T19:28:48.879Z,14.87
2019-05-28T19:31:18.790Z,14.79
2019-05-28T19:33:48.784Z,14.79
2019-05-28T19:36:18.952Z,14.71
2019-05-28T19:38:49.619Z,14.58
2019-05-28T19:41:19.491Z,14.47
2019-05-28T19:43:49.524Z,14.41
2019-05-28T19:46:19.594Z,14.40
2019-05-28T19:48:50.592Z,14.38
2019-05-28T19:51:20.416Z,14.35
2019-05-28T19:53:50.297Z,14.24
2019-05-28T19:56:20.279Z,14.21
2019-05-28T19:58:51.856Z,14.15
2019-05-28T20:01:22.072Z,14.10
2019-05-28T20:03:52.064Z,14.06
2019-05-28T20:06:23.620Z,14.01
2019-05-28T20:08:53.590Z,13.98
2019-05-28T20:11:29.561Z,13.98
2019-05-28T20:13:59.379Z,13.94
2019-05-28T20:16:29.344Z,13.90
2019-05-28T20:18:59.240Z,13.88
2019-05-28T20:21:29.170Z,13.84
2019-05-28T20:23:59.441Z,13.84
2019-05-28T20:26:29.293Z,13.82
2019-05-28T20:29:08.508Z,13.77
2019-05-28T20:31:31.536Z,13.81
2019-05-28T20:34:01.413Z,13.79
2019-05-28T20:36:31.307Z,13.69
2019-05-28T20:39:01.578Z,13.72
2019-05-28T20:41:33.249Z,13.71
2019-05-28T20:44:04.255Z,13.66
2019-05-28T20:46:34.680Z,13.63
2019-05-28T20:49:04.696Z,13.66
2019-05-28T20:51:34.656Z,13.61
2019-05-28T20:54:04.868Z,13.65
2019-05-28T20:56:35.840Z,13.61
2019-05-28T20:59:05.953Z,13.55
2019-05-28T21:01:35.863Z,13.50
2019-05-28T21:04:05.840Z,13.23
2019-05-28T21:06:35.637Z,13.34
2019-05-28T21:09:07.669Z,13.26
2019-05-28T21:11:37.942Z,13.22
2019-05-28T21:14:08.289Z,13.17
2019-05-28T21:16:40.168Z,13.10
2019-05-28T21:19:10.408Z,13.07
2019-05-28T21:21:40.757Z,12.97
2019-05-28T21:24:10.587Z,13.03
2019-05-28T21:26:40.523Z,12.98
2019-05-28T21:29:10.693Z,12.91
2019-05-28T21:31:40.633Z,12.88
2019-05-28T21:34:10.826Z,12.80
2019-05-28T21:36:41.117Z,12.67
2019-05-28T21:39:12.066Z,12.67
2019-05-28T21:41:42.162Z,12.64
2019-05-28T21:44:12.043Z,12.61
2019-05-28T21:46:42.256Z,12.54
2019-05-28T21:49:12.217Z,12.51
2019-05-28T21:51:42.087Z,12.48
2019-05-28T21:54:12.094Z,12.40
2019-05-28T21:56:41.870Z,12.31
2019-05-28T21:59:12.997Z,12.28
2019-05-28T22:01:43.370Z,12.30
2019-05-28T22:04:15.883Z,12.23
2019-05-28T22:06:46.111Z,12.25
2019-05-28T22:09:15.910Z,12.23
2019-05-28T22:11:45.763Z,12.24
2019-05-28T22:14:15.636Z,12.20
2019-05-28T22:16:45.575Z,12.16
2019-05-28T22:19:15.621Z,12.15
2019-05-28T22:21:45.713Z,12.06
2019-05-28T22:24:15.611Z,11.97
2019-05-28T22:26:45.733Z,11.91
2019-05-28T22:29:16.307Z,11.89
2019-05-28T22:31:46.585Z,11.92
2019-05-28T22:34:16.817Z,11.97
2019-05-28T22:36:46.933Z,11.95
2019-05-28T22:39:16.879Z,11.92
2019-05-28T22:41:47.899Z,11.89
2019-05-28T22:44:18.124Z,11.88
2019-05-28T22:46:48.243Z,11.82
2019-05-28T22:49:18.014Z,11.75
2019-05-28T22:51:47.799Z,11.68
2019-05-28T22:54:17.699Z,11.63
2019-05-28T22:56:47.632Z,11.60
2019-05-28T22:59:17.667Z,11.54
2019-05-28T23:01:47.726Z,11.47
2019-05-28T23:04:17.564Z,11.46
2019-05-28T23:06:47.738Z,11.41
2019-05-28T23:09:28.185Z,11.34
2019-05-28T23:11:59.564Z,11.24
2019-05-28T23:14:29.699Z,11.20
2019-05-28T23:17:00.223Z,11.21
2019-05-28T23:19:30.165Z,11.18
2019-05-28T23:22:00.922Z,11.16
2019-05-28T23:24:31.264Z,11.21
2019-05-28T23:27:01.368Z,11.20
2019-05-28T23:29:31.464Z,11.17
2019-05-28T23:32:01.902Z,11.14
2019-05-28T23:34:31.805Z,11.13
2019-05-28T23:37:04.331Z,11.11
2019-05-28T23:39:33.448Z,11.11
2019-05-28T23:42:03.456Z,11.06
2019-05-28T23:44:33.329Z,11.05
2019-05-28T23:47:03.903Z,11.08
2019-05-28T23:49:33.965Z,11.12
2019-05-28T23:52:04.900Z,11.13
2019-05-28T23:54:35.276Z,11.12
2019-05-28T23:57:05.840Z,11.08
2019-05-28T23:59:35.829Z,11.08
